createdAt,value
2023-09-05T00:00:09.569Z,1017.7
2023-09-05T00:01:54.601Z,1017.63
2023-09-05T00:03:39.575Z,1017.63
2023-09-05T00:05:24.545Z,1017.69
2023-09-05T00:07:09.686Z,1017.59
2023-09-05T00:08:54.573Z,1017.52
2023-09-05T00:10:39.555Z,1017.56
2023-09-05T00:12:24.586Z,1017.64
2023-09-05T00:14:09.577Z,1017.65
2023-09-05T00:15:54.655Z,1017.55
2023-09-05T00:17:39.657Z,1017.59
2023-09-05T00:19:24.583Z,1017.64
2023-09-05T00:21:09.577Z,1017.57
2023-09-05T00:22:54.715Z,1017.54
2023-09-05T00:24:39.705Z,1017.65
2023-09-05T00:26:24.602Z,1017.61
2023-09-05T00:28:09.606Z,1017.69
2023-09-05T00:29:54.586Z,1017.62
2023-09-05T00:31:39.609Z,1017.5
2023-09-05T00:33:24.981Z,1017.53
2023-09-05T00:35:09.600Z,1017.6
2023-09-05T00:36:54.609Z,1017.64
2023-09-05T00:38:39.720Z,1017.6
2023-09-05T00:40:24.601Z,1017.64
2023-09-05T00:42:10.234Z,1017.67
2023-09-05T00:43:54.626Z,1017.66
2023-09-05T00:45:39.640Z,1017.64
2023-09-05T00:47:24.631Z,1017.62
2023-09-05T00:49:09.613Z,1017.65
2023-09-05T00:50:54.623Z,1017.72
2023-09-05T00:52:39.613Z,1017.68
2023-09-05T00:54:24.737Z,1017.7
2023-09-05T00:56:09.631Z,1017.63
2023-09-05T00:57:54.619Z,1017.58
2023-09-05T00:59:39.612Z,1017.59
2023-09-05T01:01:24.695Z,1017.59
2023-09-05T01:03:09.743Z,1017.53
2023-09-05T01:04:54.641Z,1017.56
2023-09-05T01:06:39.676Z,1017.61
2023-09-05T01:08:24.647Z,1017.59
2023-09-05T01:10:09.758Z,1017.6
2023-09-05T01:11:54.672Z,1017.62
2023-09-05T01:13:39.647Z,1017.61
2023-09-05T01:15:24.718Z,1017.61
2023-09-05T01:17:09.743Z,1017.59
2023-09-05T01:18:54.666Z,1017.58
2023-09-05T01:20:39.706Z,1017.56
2023-09-05T01:22:24.720Z,1017.66
2023-09-05T01:24:09.679Z,1017.63
2023-09-05T01:25:54.882Z,1017.58
2023-09-05T01:27:39.698Z,1017.57
2023-09-05T01:29:24.677Z,1017.58
2023-09-05T01:31:09.735Z,1017.57
2023-09-05T01:32:54.696Z,1017.6
2023-09-05T01:34:39.691Z,1017.54
2023-09-05T01:36:24.719Z,1017.48
2023-09-05T01:38:09.703Z,1017.6
2023-09-05T01:39:54.716Z,1017.49
2023-09-05T01:41:39.842Z,1017.52
2023-09-05T01:43:24.912Z,1017.56
2023-09-05T01:45:09.698Z,1017.5
2023-09-05T01:46:54.779Z,1017.48
2023-09-05T01:48:39.708Z,1017.49
2023-09-05T01:50:24.705Z,1017.42
2023-09-05T01:52:09.725Z,1017.42
2023-09-05T01:53:54.704Z,1017.48
2023-09-05T01:55:39.731Z,1017.48
2023-09-05T01:57:24.855Z,1017.38
2023-09-05T01:59:09.723Z,1017.38
2023-09-05T02:00:54.747Z,1017.48
2023-09-05T02:02:39.742Z,1017.5
2023-09-05T02:04:24.751Z,1017.48
2023-09-05T02:06:09.729Z,1017.58
2023-09-05T02:07:54.732Z,1017.54
2023-09-05T02:09:39.751Z,1017.5
2023-09-05T02:11:24.747Z,1017.5
2023-09-05T02:13:09.871Z,1017.53
2023-09-05T02:14:54.813Z,1017.52
2023-09-05T02:16:39.755Z,1017.52
2023-09-05T02:18:24.777Z,1017.54
2023-09-05T02:20:09.757Z,1017.51
2023-09-05T02:21:54.764Z,1017.54
2023-09-05T02:23:39.796Z,1017.55
2023-09-05T02:25:24.785Z,1017.58
2023-09-05T02:27:09.776Z,1017.57
2023-09-05T02:28:54.870Z,1017.61
2023-09-05T02:30:39.817Z,1017.58
2023-09-05T02:32:24.769Z,1017.61
2023-09-05T02:34:09.768Z,1017.54
2023-09-05T02:35:54.805Z,1017.52
2023-09-05T02:37:39.810Z,1017.56
2023-09-05T02:39:24.793Z,1017.52
2023-09-05T02:41:09.780Z,1017.53
2023-09-05T02:42:54.798Z,1017.57
2023-09-05T02:44:39.899Z,1017.7
2023-09-05T02:46:24.796Z,1017.55
2023-09-05T02:48:09.838Z,1017.57
2023-09-05T02:49:54.785Z,1017.57
2023-09-05T02:51:40.124Z,1017.49
2023-09-05T02:53:24.924Z,1017.58
2023-09-05T02:55:09.794Z,1017.63
2023-09-05T02:56:54.812Z,1017.64
2023-09-05T02:58:39.836Z,1017.54
2023-09-05T03:00:24.926Z,1017.6
2023-09-05T03:02:09.805Z,1017.59
2023-09-05T03:03:54.885Z,1017.6
2023-09-05T03:05:39.818Z,1017.58
2023-09-05T03:07:24.829Z,1017.57
2023-09-05T03:09:09.831Z,1017.46
2023-09-05T03:10:54.829Z,1017.6
2023-09-05T03:12:39.832Z,1017.52
2023-09-05T03:14:24.848Z,1017.56
2023-09-05T03:16:09.963Z,1017.57
2023-09-05T03:17:54.880Z,1017.58
2023-09-05T03:19:39.851Z,1017.63
2023-09-05T03:21:24.859Z,1017.62
2023-09-05T03:23:09.834Z,1017.54
2023-09-05T03:24:54.867Z,1017.51
2023-09-05T03:26:39.885Z,1017.54
2023-09-05T03:28:24.890Z,1017.63
2023-09-05T03:30:09.859Z,1017.58
2023-09-05T03:31:55.320Z,1017.56
2023-09-05T03:33:39.948Z,1017.6
2023-09-05T03:35:24.873Z,1017.62
2023-09-05T03:37:09.900Z,1017.57
2023-09-05T03:38:54.862Z,1017.5
2023-09-05T03:40:39.899Z,1017.45
2023-09-05T03:42:25.162Z,1017.55
2023-09-05T03:44:09.931Z,1017.6
2023-09-05T03:45:54.938Z,1017.6
2023-09-05T03:47:47.089Z,1017.61
2023-09-05T03:49:24.884Z,1017.69
2023-09-05T03:51:09.917Z,1017.69
2023-09-05T03:52:55.217Z,1017.55
2023-09-05T03:54:39.900Z,1017.6
2023-09-05T03:56:24.921Z,1017.59
2023-09-05T03:58:09.896Z,1017.56
2023-09-05T03:59:54.875Z,1017.52
2023-09-05T04:01:39.948Z,1017.53
2023-09-05T04:03:25.289Z,1017.41
2023-09-05T04:05:10.082Z,1017.54
2023-09-05T04:06:54.925Z,1017.46
2023-09-05T04:08:39.913Z,1017.5
2023-09-05T04:10:24.911Z,1017.5
2023-09-05T04:12:09.925Z,1017.52
2023-09-05T04:13:54.922Z,1017.47
2023-09-05T04:15:39.938Z,1017.43
2023-09-05T04:17:26.306Z,1017.46
2023-09-05T04:19:09.950Z,1017.48
2023-09-05T04:20:54.972Z,1017.55
2023-09-05T04:22:39.933Z,1017.53
2023-09-05T04:24:26.811Z,1017.46
2023-09-05T04:26:09.962Z,1017.4
2023-09-05T04:27:54.940Z,1017.58
2023-09-05T04:29:39.936Z,1017.55
2023-09-05T04:31:24.961Z,1017.54
2023-09-05T04:33:09.952Z,1017.53
2023-09-05T04:34:55.057Z,1017.59
2023-09-05T04:36:39.944Z,1017.48
2023-09-05T04:38:24.954Z,1017.63
2023-09-05T04:40:10.002Z,1017.58
2023-09-05T04:41:54.966Z,1017.51
2023-09-05T04:43:39.976Z,1017.51
2023-09-05T04:45:24.988Z,1017.56
2023-09-05T04:47:09.946Z,1017.66
2023-09-05T04:48:54.984Z,1017.57
2023-09-05T04:50:40.097Z,1017.62
2023-09-05T04:52:24.969Z,1017.63
2023-09-05T04:54:09.961Z,1017.58
2023-09-05T04:55:54.998Z,1017.68
2023-09-05T04:57:39.987Z,1017.65
2023-09-05T04:59:24.964Z,1017.56
2023-09-05T05:01:09.997Z,1017.6
2023-09-05T05:02:55.161Z,1017.62
2023-09-05T05:04:40.007Z,1017.72
2023-09-05T05:06:25.099Z,1017.76
2023-09-05T05:08:09.989Z,1017.74
2023-09-05T05:09:55.007Z,1017.72
2023-09-05T05:11:40.023Z,1017.78
2023-09-05T05:13:24.985Z,1017.8
2023-09-05T05:15:10.017Z,1017.8
2023-09-05T05:16:55.354Z,1017.84
2023-09-05T05:18:39.999Z,1017.85
2023-09-05T05:20:25.024Z,1017.84
2023-09-05T05:22:10.121Z,1017.79
2023-09-05T05:23:55.035Z,1017.74
2023-09-05T05:25:40.014Z,1017.77
2023-09-05T05:27:25.027Z,1017.81
2023-09-05T05:29:10.039Z,1017.83
2023-09-05T05:30:55.032Z,1017.83
2023-09-05T05:32:40.033Z,1017.8
2023-09-05T05:34:25.046Z,1017.76
2023-09-05T05:36:10.041Z,1017.83
2023-09-05T05:37:55.185Z,1017.88
2023-09-05T05:39:40.048Z,1017.86
2023-09-05T05:41:25.051Z,1017.87
2023-09-05T05:43:10.041Z,1017.83
2023-09-05T05:44:55.080Z,1017.85
2023-09-05T05:46:40.058Z,1017.85
2023-09-05T05:48:25.384Z,1017.86
2023-09-05T05:50:10.065Z,1017.9
2023-09-05T05:51:55.690Z,1017.87
2023-09-05T05:53:40.192Z,1017.91
2023-09-05T05:55:25.040Z,1017.89
2023-09-05T05:57:10.047Z,1017.86
2023-09-05T05:58:55.084Z,1017.96
2023-09-05T06:00:40.069Z,1017.91
2023-09-05T06:02:25.086Z,1018.01
2023-09-05T06:04:10.108Z,1017.85
2023-09-05T06:05:55.110Z,1017.91
2023-09-05T06:07:40.099Z,1017.81
2023-09-05T06:09:25.227Z,1017.84
2023-09-05T06:11:10.090Z,1017.89
2023-09-05T06:12:55.087Z,1017.82
2023-09-05T06:14:40.100Z,1017.99
2023-09-05T06:16:25.146Z,1017.95
2023-09-05T06:18:10.133Z,1017.95
2023-09-05T06:19:55.132Z,1017.89
2023-09-05T06:21:40.110Z,1017.84
2023-09-05T06:23:25.437Z,1017.9
2023-09-05T06:25:10.227Z,1017.93
2023-09-05T06:26:55.136Z,1017.9
2023-09-05T06:28:40.152Z,1017.91
2023-09-05T06:30:25.132Z,1018.01
2023-09-05T06:32:10.148Z,1017.96
2023-09-05T06:33:55.139Z,1017.89
2023-09-05T06:35:40.130Z,1017.93
2023-09-05T06:37:25.150Z,1017.98
2023-09-05T06:39:10.152Z,1017.89
2023-09-05T06:40:55.264Z,1017.99
2023-09-05T06:42:40.157Z,1017.94
2023-09-05T06:44:25.172Z,1018.04
2023-09-05T06:46:10.238Z,1018.01
2023-09-05T06:47:55.147Z,1017.99
2023-09-05T06:49:40.174Z,1018.01
2023-09-05T06:51:25.164Z,1017.97
2023-09-05T06:53:10.173Z,1017.9
2023-09-05T06:54:55.155Z,1017.9
2023-09-05T06:56:40.312Z,1017.9
2023-09-05T06:58:25.565Z,1017.93
2023-09-05T07:00:10.164Z,1017.95
2023-09-05T07:01:55.212Z,1017.94
2023-09-05T07:03:40.177Z,1017.91
2023-09-05T07:05:25.247Z,1017.96
2023-09-05T07:07:10.196Z,1017.87
2023-09-05T07:08:55.190Z,1017.93
2023-09-05T07:10:40.212Z,1017.99
2023-09-05T07:12:25.292Z,1017.97
2023-09-05T07:14:10.213Z,1018.07
2023-09-05T07:15:55.265Z,1018.07
2023-09-05T07:17:40.259Z,1018.02
2023-09-05T07:19:25.208Z,1017.98
2023-09-05T07:21:10.231Z,1018.03
2023-09-05T07:22:55.234Z,1018.07
2023-09-05T07:24:40.217Z,1017.95
2023-09-05T07:26:25.265Z,1017.96
2023-09-05T07:28:10.354Z,1017.92
2023-09-05T07:29:55.239Z,1017.93
2023-09-05T07:31:40.261Z,1017.91
2023-09-05T07:33:25.242Z,1017.97
2023-09-05T07:35:10.250Z,1017.89
2023-09-05T07:36:55.250Z,1017.93
2023-09-05T07:38:40.266Z,1017.85
2023-09-05T07:40:25.273Z,1017.84
2023-09-05T07:42:10.247Z,1017.97
2023-09-05T07:43:55.359Z,1017.87
2023-09-05T07:45:40.277Z,1017.84
2023-09-05T07:47:25.287Z,1017.81
2023-09-05T07:49:10.279Z,1017.85
2023-09-05T07:50:55.296Z,1017.89
2023-09-05T07:52:40.306Z,1017.82
2023-09-05T07:54:25.281Z,1017.85
2023-09-05T07:56:10.282Z,1017.85
2023-09-05T07:57:55.272Z,1017.79
2023-09-05T07:59:40.424Z,1017.82
2023-09-05T08:01:25.318Z,1017.93
2023-09-05T08:03:10.340Z,1017.89
2023-09-05T08:04:55.291Z,1017.89
2023-09-05T08:06:40.302Z,1017.99
2023-09-05T08:08:25.624Z,1017.93
2023-09-05T08:10:10.312Z,1017.87
2023-09-05T08:11:55.314Z,1017.9
2023-09-05T08:13:40.300Z,1017.83
2023-09-05T08:15:25.411Z,1017.8
2023-09-05T08:17:10.310Z,1017.79
2023-09-05T08:18:55.283Z,1017.82
2023-09-05T08:20:40.290Z,1017.77
2023-09-05T08:22:25.322Z,1017.77
2023-09-05T08:24:10.354Z,1017.76
2023-09-05T08:25:55.314Z,1017.82
2023-09-05T08:27:40.327Z,1017.61
2023-09-05T08:29:25.364Z,1017.69
2023-09-05T08:31:18.032Z,1017.69
2023-09-05T08:32:55.448Z,1017.75
2023-09-05T08:34:40.353Z,1017.75
2023-09-05T08:36:25.336Z,1017.68
2023-09-05T08:38:10.342Z,1017.67
2023-09-05T08:39:55.343Z,1017.75
2023-09-05T08:41:40.347Z,1017.67
2023-09-05T08:43:25.324Z,1017.57
2023-09-05T08:45:10.356Z,1017.54
2023-09-05T08:46:55.621Z,1017.68
2023-09-05T08:48:52.391Z,1017.65
2023-09-05T08:50:25.366Z,1017.58
2023-09-05T08:52:10.331Z,1017.56
2023-09-05T08:53:55.355Z,1017.57
2023-09-05T08:55:40.710Z,1017.54
2023-09-05T08:57:25.334Z,1017.42
2023-09-05T08:59:10.360Z,1017.47
2023-09-05T09:00:55.406Z,1017.58
2023-09-05T09:02:40.686Z,1017.65
2023-09-05T09:04:25.384Z,1017.53
2023-09-05T09:06:10.387Z,1017.45
2023-09-05T09:07:55.394Z,1017.51
2023-09-05T09:09:40.378Z,1017.47
2023-09-05T09:11:25.418Z,1017.43
2023-09-05T09:13:10.397Z,1017.49
2023-09-05T09:14:55.417Z,1017.48
2023-09-05T09:16:40.490Z,1017.46
2023-09-05T09:18:25.738Z,1017.57
2023-09-05T09:20:10.406Z,1017.54
2023-09-05T09:21:55.397Z,1017.5
2023-09-05T09:23:40.376Z,1017.53
2023-09-05T09:25:25.419Z,1017.56
2023-09-05T09:27:10.424Z,1017.55
2023-09-05T09:28:55.422Z,1017.53
2023-09-05T09:30:40.447Z,1017.42
2023-09-05T09:32:25.489Z,1017.56
2023-09-05T09:34:10.507Z,1017.58
2023-09-05T09:35:55.764Z,1017.55
2023-09-05T09:37:40.442Z,1017.68
2023-09-05T09:39:25.415Z,1017.55
2023-09-05T09:41:10.407Z,1017.58
2023-09-05T09:42:55.473Z,1017.6
2023-09-05T09:44:40.435Z,1017.57
2023-09-05T09:46:25.417Z,1017.57
2023-09-05T09:48:10.472Z,1017.52
2023-09-05T09:49:55.553Z,1017.52
2023-09-05T09:51:40.713Z,1017.53
2023-09-05T09:53:25.460Z,1017.5
2023-09-05T09:55:10.445Z,1017.5
2023-09-05T09:56:55.444Z,1017.48
2023-09-05T09:58:40.432Z,1017.48
2023-09-05T10:00:25.434Z,1017.43
2023-09-05T10:02:14.106Z,1017.41
2023-09-05T10:03:55.518Z,1017.48
2023-09-05T10:05:40.551Z,1017.49
2023-09-05T10:07:25.457Z,1017.42
2023-09-05T10:09:10.434Z,1017.49
2023-09-05T10:10:55.463Z,1017.41
2023-09-05T10:12:40.443Z,1017.47
2023-09-05T10:14:25.456Z,1017.45
2023-09-05T10:16:10.646Z,1017.39
2023-09-05T10:17:55.504Z,1017.52
2023-09-05T10:19:40.476Z,1017.39
2023-09-05T10:21:25.602Z,1017.32
2023-09-05T10:23:10.490Z,1017.41
2023-09-05T10:24:55.482Z,1017.48
2023-09-05T10:26:40.522Z,1017.38
2023-09-05T10:28:25.684Z,1017.29
2023-09-05T10:30:10.484Z,1017.41
2023-09-05T10:31:55.558Z,1017.46
2023-09-05T10:33:40.485Z,1017.4
2023-09-05T10:35:25.503Z,1017.39
2023-09-05T10:37:10.655Z,1017.37
2023-09-05T10:38:55.510Z,1017.41
2023-09-05T10:40:40.501Z,1017.33
2023-09-05T10:42:25.536Z,1017.4
2023-09-05T10:44:10.492Z,1017.4
2023-09-05T10:45:55.558Z,1017.28
2023-09-05T10:47:40.584Z,1017.4
2023-09-05T10:49:25.518Z,1017.31
2023-09-05T10:51:10.531Z,1017.3
2023-09-05T10:52:55.650Z,1017.27
2023-09-05T10:54:40.529Z,1017.37
2023-09-05T10:56:25.509Z,1017.35
2023-09-05T10:58:10.850Z,1017.32
2023-09-05T10:59:55.537Z,1017.3
2023-09-05T11:01:40.619Z,1017.3
2023-09-05T11:03:25.646Z,1017.25
2023-09-05T11:05:10.612Z,1017.25
2023-09-05T11:06:55.536Z,1017.14
2023-09-05T11:08:40.776Z,1017.13
2023-09-05T11:10:25.570Z,1017.13
2023-09-05T11:12:10.571Z,1017.15
2023-09-05T11:13:55.574Z,1017.1
2023-09-05T11:15:40.573Z,1017.06
2023-09-05T11:17:25.655Z,1017.01
2023-09-05T11:19:10.560Z,1017.06
2023-09-05T11:20:55.572Z,1017.09
2023-09-05T11:22:42.060Z,1017.12
2023-09-05T11:24:25.693Z,1017.09
2023-09-05T11:26:10.598Z,1017.03
2023-09-05T11:27:55.598Z,1016.97
2023-09-05T11:29:40.572Z,1017.02
2023-09-05T11:31:25.620Z,1016.96
2023-09-05T11:33:10.661Z,1016.97
2023-09-05T11:34:55.600Z,1016.97
2023-09-05T11:36:40.616Z,1016.94
2023-09-05T11:38:25.737Z,1017
2023-09-05T11:40:10.731Z,1017
2023-09-05T11:41:55.619Z,1016.99
2023-09-05T11:43:40.599Z,1016.91
2023-09-05T11:45:25.612Z,1016.94
2023-09-05T11:47:10.636Z,1016.97
2023-09-05T11:48:55.911Z,1016.84
2023-09-05T11:50:40.600Z,1016.84
2023-09-05T11:52:25.684Z,1016.82
2023-09-05T11:54:10.603Z,1016.83
2023-09-05T11:55:55.656Z,1016.89
2023-09-05T11:57:40.640Z,1016.87
2023-09-05T11:59:25.656Z,1016.92
2023-09-05T12:01:10.678Z,1016.94
2023-09-05T12:02:55.714Z,1016.79
2023-09-05T12:04:42.349Z,1016.84
2023-09-05T12:06:25.669Z,1016.84
2023-09-05T12:08:18.463Z,1016.88
2023-09-05T12:09:55.655Z,1016.9
2023-09-05T12:11:40.887Z,1016.87
2023-09-05T12:13:25.657Z,1016.82
2023-09-05T12:15:10.664Z,1016.78
2023-09-05T12:16:55.687Z,1016.86
2023-09-05T12:18:43.411Z,1016.81
2023-09-05T12:20:25.654Z,1016.71
2023-09-05T12:22:10.662Z,1016.71
2023-09-05T12:23:55.680Z,1016.71
2023-09-05T12:25:50.783Z,1016.72
2023-09-05T12:27:25.799Z,1016.73
2023-09-05T12:29:10.681Z,1016.67
2023-09-05T12:30:55.716Z,1016.65
2023-09-05T12:32:40.728Z,1016.66
2023-09-05T12:34:25.724Z,1016.71
2023-09-05T12:36:10.672Z,1016.55
2023-09-05T12:37:55.690Z,1016.64
2023-09-05T12:39:40.678Z,1016.67
2023-09-05T12:41:25.687Z,1016.68
2023-09-05T12:43:10.780Z,1016.66
2023-09-05T12:44:56.004Z,1016.63
2023-09-05T12:46:40.711Z,1016.67
2023-09-05T12:48:26.058Z,1016.55
2023-09-05T12:50:11.902Z,1016.64
2023-09-05T12:51:55.693Z,1016.63
2023-09-05T12:53:40.723Z,1016.54
2023-09-05T12:55:25.697Z,1016.54
2023-09-05T12:57:10.709Z,1016.41
2023-09-05T12:58:55.866Z,1016.46
2023-09-05T13:00:40.730Z,1016.53
2023-09-05T13:02:25.797Z,1016.49
2023-09-05T13:04:10.754Z,1016.51
2023-09-05T13:05:55.745Z,1016.54
2023-09-05T13:07:40.727Z,1016.45
2023-09-05T13:09:25.748Z,1016.52
2023-09-05T13:11:10.732Z,1016.51
2023-09-05T13:12:57.868Z,1016.56
2023-09-05T13:14:40.874Z,1016.48
2023-09-05T13:16:25.752Z,1016.39
2023-09-05T13:18:10.789Z,1016.39
2023-09-05T13:19:55.749Z,1016.39
2023-09-05T13:21:40.758Z,1016.33
2023-09-05T13:23:25.792Z,1016.31
2023-09-05T13:25:10.764Z,1016.32
2023-09-05T13:26:55.750Z,1016.36
2023-09-05T13:28:40.750Z,1016.31
2023-09-05T13:30:25.892Z,1016.34
2023-09-05T13:32:10.753Z,1016.28
2023-09-05T13:33:55.897Z,1016.3
2023-09-05T13:35:40.753Z,1016.15
2023-09-05T13:37:25.780Z,1016.19
2023-09-05T13:39:10.770Z,1016.28
2023-09-05T13:40:55.750Z,1016.23
2023-09-05T13:42:40.911Z,1016.19
2023-09-05T13:44:25.821Z,1016.23
2023-09-05T13:46:10.995Z,1016.16
2023-09-05T13:47:55.802Z,1016.23
2023-09-05T13:49:40.812Z,1016.21
2023-09-05T13:51:25.835Z,1016.12
2023-09-05T13:53:10.803Z,1016.15
2023-09-05T13:54:55.783Z,1016.06
2023-09-05T13:56:40.859Z,1016.09
2023-09-05T13:58:26.051Z,1015.99
2023-09-05T14:00:10.817Z,1016.08
2023-09-05T14:01:56.249Z,1016.02
2023-09-05T14:03:40.850Z,1015.99
2023-09-05T14:05:25.844Z,1015.93
2023-09-05T14:07:10.818Z,1015.94
2023-09-05T14:08:55.840Z,1015.97
2023-09-05T14:10:40.810Z,1015.82
2023-09-05T14:12:25.889Z,1015.81
2023-09-05T14:14:10.855Z,1015.93
2023-09-05T14:15:55.886Z,1015.96
2023-09-05T14:17:40.949Z,1015.91
2023-09-05T14:19:25.977Z,1015.8
2023-09-05T14:21:10.868Z,1015.86
2023-09-05T14:22:55.843Z,1015.84
2023-09-05T14:24:40.867Z,1015.83
2023-09-05T14:26:25.861Z,1015.81
2023-09-05T14:28:10.876Z,1015.8
2023-09-05T14:29:55.849Z,1015.85
2023-09-05T14:31:40.880Z,1015.85
2023-09-05T14:33:25.990Z,1015.78
2023-09-05T14:35:10.921Z,1015.78
2023-09-05T14:36:55.849Z,1015.72
2023-09-05T14:38:40.892Z,1015.85
2023-09-05T14:40:25.862Z,1015.8
2023-09-05T14:42:10.900Z,1015.85
2023-09-05T14:43:55.881Z,1015.93
2023-09-05T14:45:41.034Z,1015.91
2023-09-05T14:47:25.862Z,1015.89
2023-09-05T14:49:11.080Z,1015.83
2023-09-05T14:50:55.868Z,1015.91
2023-09-05T14:52:40.892Z,1015.85
2023-09-05T14:54:25.931Z,1015.84
2023-09-05T14:56:10.889Z,1015.83
2023-09-05T14:57:55.912Z,1015.89
2023-09-05T14:59:40.911Z,1015.82
2023-09-05T15:01:25.925Z,1015.84
2023-09-05T15:03:11.035Z,1015.66
2023-09-05T15:04:56.006Z,1015.71
2023-09-05T15:06:40.980Z,1015.73
2023-09-05T15:08:26.143Z,1015.72
2023-09-05T15:10:10.910Z,1015.64
2023-09-05T15:11:55.939Z,1015.62
2023-09-05T15:13:40.943Z,1015.74
2023-09-05T15:15:25.949Z,1015.71
2023-09-05T15:17:10.917Z,1015.64
2023-09-05T15:18:56.038Z,1015.55
2023-09-05T15:20:41.037Z,1015.69
2023-09-05T15:22:25.941Z,1015.6
2023-09-05T15:24:10.941Z,1015.55
2023-09-05T15:25:55.921Z,1015.57
2023-09-05T15:27:40.963Z,1015.54
2023-09-05T15:29:25.923Z,1015.57
2023-09-05T15:31:10.952Z,1015.51
2023-09-05T15:32:55.981Z,1015.49
2023-09-05T15:34:40.922Z,1015.45
2023-09-05T15:36:26.242Z,1015.49
2023-09-05T15:38:10.945Z,1015.5
2023-09-05T15:39:55.933Z,1015.44
2023-09-05T15:41:40.951Z,1015.43
2023-09-05T15:43:25.960Z,1015.38
2023-09-05T15:45:10.971Z,1015.44
2023-09-05T15:46:55.952Z,1015.52
2023-09-05T15:48:41.040Z,1015.41
2023-09-05T15:50:26.028Z,1015.4
2023-09-05T15:52:11.062Z,1015.48
2023-09-05T15:53:55.950Z,1015.37
2023-09-05T15:55:41.016Z,1015.48
2023-09-05T15:57:26.013Z,1015.39
2023-09-05T15:59:10.968Z,1015.51
2023-09-05T16:00:56.038Z,1015.42
2023-09-05T16:02:41.006Z,1015.4
2023-09-05T16:04:26.310Z,1015.43
2023-09-05T16:06:10.966Z,1015.6
2023-09-05T16:07:56.121Z,1015.52
2023-09-05T16:09:41.044Z,1015.59
2023-09-05T16:11:25.995Z,1015.55
2023-09-05T16:13:10.981Z,1015.6
2023-09-05T16:14:55.997Z,1015.57
2023-09-05T16:16:41.102Z,1015.66
2023-09-05T16:18:26.507Z,1015.51
2023-09-05T16:20:11.027Z,1015.53
2023-09-05T16:21:56.025Z,1015.55
2023-09-05T16:23:41.145Z,1015.47
2023-09-05T16:25:26.028Z,1015.53
2023-09-05T16:27:11.049Z,1015.42
2023-09-05T16:28:56.068Z,1015.44
2023-09-05T16:30:41.168Z,1015.52
2023-09-05T16:32:26.059Z,1015.48
2023-09-05T16:34:11.075Z,1015.46
2023-09-05T16:35:56.037Z,1015.43
2023-09-05T16:37:41.070Z,1015.41
2023-09-05T16:39:26.252Z,1015.38
2023-09-05T16:41:11.049Z,1015.38
2023-09-05T16:42:56.048Z,1015.39
2023-09-05T16:44:41.298Z,1015.45
2023-09-05T16:46:26.089Z,1015.49
2023-09-05T16:48:11.091Z,1015.46
2023-09-05T16:49:56.075Z,1015.46
2023-09-05T16:51:41.070Z,1015.48
2023-09-05T16:53:26.066Z,1015.5
2023-09-05T16:55:11.111Z,1015.52
2023-09-05T16:56:56.082Z,1015.54
2023-09-05T16:58:41.133Z,1015.52
2023-09-05T17:00:26.110Z,1015.52
2023-09-05T17:02:11.131Z,1015.55
2023-09-05T17:03:56.135Z,1015.65
2023-09-05T17:05:41.097Z,1015.59
2023-09-05T17:07:26.079Z,1015.63
2023-09-05T17:09:11.187Z,1015.72
2023-09-05T17:10:56.229Z,1015.7
2023-09-05T17:12:41.162Z,1015.68
2023-09-05T17:14:26.094Z,1015.66
2023-09-05T17:16:11.110Z,1015.75
2023-09-05T17:17:56.154Z,1015.74
2023-09-05T17:19:41.096Z,1015.68
2023-09-05T17:21:26.160Z,1015.68
2023-09-05T17:23:11.110Z,1015.6
2023-09-05T17:24:56.135Z,1015.62
2023-09-05T17:26:41.238Z,1015.66
2023-09-05T17:28:26.323Z,1015.66
2023-09-05T17:30:11.137Z,1015.76
2023-09-05T17:31:56.131Z,1015.67
2023-09-05T17:33:41.136Z,1015.68
2023-09-05T17:35:26.132Z,1015.67
2023-09-05T17:37:11.142Z,1015.67
2023-09-05T17:38:56.130Z,1015.7
2023-09-05T17:40:41.140Z,1015.64
2023-09-05T17:42:26.280Z,1015.71
2023-09-05T17:44:11.126Z,1015.72
2023-09-05T17:45:56.220Z,1015.78
2023-09-05T17:47:41.189Z,1015.84
2023-09-05T17:49:26.139Z,1015.87
2023-09-05T17:51:11.161Z,1015.84
2023-09-05T17:52:56.176Z,1015.81
2023-09-05T17:54:41.185Z,1015.91
2023-09-05T17:56:26.163Z,1015.97
2023-09-05T17:58:11.321Z,1016.02
2023-09-05T17:59:56.148Z,1015.93
2023-09-05T18:01:41.190Z,1016.03
2023-09-05T18:03:26.257Z,1016.02
2023-09-05T18:05:11.155Z,1015.98
2023-09-05T18:06:56.153Z,1016.02
2023-09-05T18:08:41.205Z,1016.01
2023-09-05T18:10:26.169Z,1016.02
2023-09-05T18:12:11.210Z,1016.05
2023-09-05T18:13:56.315Z,1016.09
2023-09-05T18:15:41.211Z,1016.03
2023-09-05T18:17:26.194Z,1016.05
2023-09-05T18:19:11.344Z,1016.02
2023-09-05T18:20:56.198Z,1016.06
2023-09-05T18:22:41.192Z,1016.09
2023-09-05T18:24:26.258Z,1016.09
2023-09-05T18:26:11.206Z,1016.09
2023-09-05T18:27:56.176Z,1016.02
2023-09-05T18:29:41.365Z,1016.05
2023-09-05T18:31:26.212Z,1016.12
2023-09-05T18:33:11.282Z,1016.17
2023-09-05T18:34:56.206Z,1016.18
2023-09-05T18:36:41.252Z,1016.14
2023-09-05T18:38:26.472Z,1016.2
2023-09-05T18:40:11.215Z,1016.15
2023-09-05T18:41:56.192Z,1016.21
2023-09-05T18:43:41.215Z,1016.18
2023-09-05T18:45:26.349Z,1016.19
2023-09-05T18:47:11.524Z,1016.12
2023-09-05T18:48:56.230Z,1016.18
2023-09-05T18:50:41.215Z,1016.36
2023-09-05T18:52:26.266Z,1016.32
2023-09-05T18:54:11.253Z,1016.32
2023-09-05T18:55:56.204Z,1016.25
2023-09-05T18:57:41.268Z,1016.34
2023-09-05T18:59:26.255Z,1016.32
2023-09-05T19:01:11.375Z,1016.33
2023-09-05T19:02:56.372Z,1016.31
2023-09-05T19:04:41.235Z,1016.34
2023-09-05T19:06:26.289Z,1016.29
2023-09-05T19:08:11.287Z,1016.34
2023-09-05T19:09:56.256Z,1016.35
2023-09-05T19:11:41.896Z,1016.26
2023-09-05T19:13:26.276Z,1016.33
2023-09-05T19:15:11.334Z,1016.31
2023-09-05T19:16:56.326Z,1016.4
2023-09-05T19:18:41.258Z,1016.26
2023-09-05T19:20:26.275Z,1016.29
2023-09-05T19:22:11.250Z,1016.34
2023-09-05T19:23:56.293Z,1016.24
2023-09-05T19:25:41.288Z,1016.32
2023-09-05T19:27:26.649Z,1016.33
2023-09-05T19:29:11.285Z,1016.36
2023-09-05T19:30:56.368Z,1016.33
2023-09-05T19:32:41.512Z,1016.28
2023-09-05T19:34:26.293Z,1016.28
2023-09-05T19:36:11.303Z,1016.31
2023-09-05T19:37:56.323Z,1016.29
2023-09-05T19:39:41.326Z,1016.26
2023-09-05T19:41:26.303Z,1016.27
2023-09-05T19:43:11.315Z,1016.34
2023-09-05T19:44:56.302Z,1016.32
2023-09-05T19:46:41.341Z,1016.29
2023-09-05T19:48:26.653Z,1016.27
2023-09-05T19:50:11.326Z,1016.32
2023-09-05T19:51:56.324Z,1016.23
2023-09-05T19:53:41.319Z,1016.29
2023-09-05T19:55:26.299Z,1016.25
2023-09-05T19:57:11.330Z,1016.25
2023-09-05T19:58:56.341Z,1016.19
2023-09-05T20:00:41.387Z,1016.32
2023-09-05T20:02:26.351Z,1016.18
2023-09-05T20:04:11.450Z,1016.23
2023-09-05T20:05:56.337Z,1016.25
2023-09-05T20:07:41.357Z,1016.26
2023-09-05T20:09:26.376Z,1016.26
2023-09-05T20:11:11.354Z,1016.25
2023-09-05T20:12:56.387Z,1016.24
2023-09-05T20:14:41.395Z,1016.14
2023-09-05T20:16:26.403Z,1016.22
2023-09-05T20:18:11.392Z,1016.15
2023-09-05T20:19:56.457Z,1016.17
2023-09-05T20:21:41.605Z,1016.2
2023-09-05T20:23:26.354Z,1016.12
2023-09-05T20:25:11.367Z,1016.17
2023-09-05T20:26:56.371Z,1016.13
2023-09-05T20:28:41.376Z,1016.18
2023-09-05T20:30:26.404Z,1016.09
2023-09-05T20:32:11.372Z,1016.17
2023-09-05T20:33:56.376Z,1016.08
2023-09-05T20:35:41.483Z,1016.19
2023-09-05T20:37:26.377Z,1016.16
2023-09-05T20:39:11.388Z,1016.17
2023-09-05T20:40:56.408Z,1016.21
2023-09-05T20:42:41.386Z,1016.16
2023-09-05T20:44:26.381Z,1016.26
2023-09-05T20:46:11.452Z,1016.27
2023-09-05T20:47:56.483Z,1016.27
2023-09-05T20:49:41.490Z,1016.28
2023-09-05T20:51:26.538Z,1016.26
2023-09-05T20:53:11.413Z,1016.27
2023-09-05T20:54:56.457Z,1016.21
2023-09-05T20:56:41.390Z,1016.27
2023-09-05T20:58:26.626Z,1016.12
2023-09-05T21:00:11.437Z,1016.24
2023-09-05T21:01:56.448Z,1016.19
2023-09-05T21:03:41.494Z,1016.25
2023-09-05T21:05:26.430Z,1016.25
2023-09-05T21:07:11.548Z,1016.28
2023-09-05T21:08:56.421Z,1016.31
2023-09-05T21:10:41.442Z,1016.3
2023-09-05T21:12:26.471Z,1016.34
2023-09-05T21:14:11.466Z,1016.36